Time;durP1;ratioP1;P1;durP2;ratioP2;P2;SDS_P1;SDS_P2;PMS_P1;PMS_P2;Temp;Humidity;BMP_temperature;BMP_pressure;BME280_temperature;BME280_humidity;BME280_pressure;Samples;Min_cycle;Max_cycle;Signal;HPM_P1;HPM_P2
2022/03/07 00:02:11;;;;;;;16.63;7.13;;;0.60;99.90;;;;;;5093790;28;20056;-69
2022/03/07 00:04:37;;;;;;;11.27;5.95;;;-0.20;99.90;;;;;;5101195;28;20050;-69
2022/03/07 00:07:03;;;;;;;9.57;5.90;;;-0.40;99.90;;;;;;5074365;28;20035;-69
2022/03/07 00:09:29;;;;;;;8.55;4.93;;;0.00;99.90;;;;;;5091319;28;20040;-69
2022/03/07 00:11:55;;;;;;;10.48;5.78;;;-0.50;99.90;;;;;;5075002;28;20414;-69
2022/03/07 00:14:21;;;;;;;10.40;5.80;;;-0.50;99.90;;;;;;5092847;28;20044;-71
2022/03/07 00:16:47;;;;;;;8.38;5.07;;;0.60;99.90;;;;;;5081885;28;20127;-69
2022/03/07 00:19:13;;;;;;;8.00;4.57;;;-0.60;99.90;;;;;;5101848;28;20032;-70
2022/03/07 00:21:39;;;;;;;81.75;6.47;;;-0.60;99.90;;;;;;5089875;28;20135;-69
2022/03/07 00:24:07;;;;;;;65.93;9.63;;;-0.70;99.90;;;;;;5088335;28;20126;-69
2022/03/07 00:26:34;;;;;;;11.00;6.53;;;-0.70;99.90;;;;;;5090681;28;20063;-71
2022/03/07 00:29:00;;;;;;;11.27;5.10;;;-0.70;99.90;;;;;;5094940;28;20043;-70
2022/03/07 00:31:26;;;;;;;12.23;6.72;;;-0.70;99.90;;;;;;5090294;28;20054;-69
2022/03/07 00:33:52;;;;;;;15.52;6.82;;;-0.80;99.90;;;;;;5096794;28;20454;-69
2022/03/07 00:36:19;;;;;;;13.32;6.80;;;-0.70;99.90;;;;;;5062631;28;20516;-69
2022/03/07 00:38:46;;;;;;;11.65;6.78;;;-0.70;99.90;;;;;;5091795;28;20055;-69
2022/03/07 00:41:13;;;;;;;11.02;5.30;;;-0.80;99.90;;;;;;5082839;28;20051;-69
2022/03/07 00:43:39;;;;;;;9.98;4.75;;;-0.80;99.90;;;;;;5094791;28;20054;-69
2022/03/07 00:46:06;;;;;;;12.68;5.82;;;-0.90;99.90;;;;;;5080661;28;20101;-69
2022/03/07 00:48:32;;;;;;;14.48;6.18;;;-0.90;99.90;;;;;;5076096;28;20062;-70
2022/03/07 00:50:57;;;;;;;12.02;5.82;;;-0.90;99.90;;;;;;5086537;28;20122;-69
2022/03/07 00:53:25;;;;;;;10.40;5.45;;;-0.90;99.90;;;;;;5077132;28;20537;-69
2022/03/07 00:55:52;;;;;;;11.50;6.05;;;-0.90;99.90;;;;;;5083249;28;20101;-70
2022/03/07 00:58:19;;;;;;;11.05;5.65;;;-0.90;99.90;;;;;;5076697;28;20055;-68
2022/03/07 01:00:45;;;;;;;11.85;6.43;;;-1.00;99.90;;;;;;5057643;28;20047;-69
2022/03/07 01:03:13;;;;;;;12.20;5.40;;;-1.00;99.90;;;;;;5095792;28;20511;-66
2022/03/07 01:05:40;;;;;;;11.98;5.30;;;-1.00;99.90;;;;;;5095613;28;20092;-66
2022/03/07 01:08:07;;;;;;;12.18;5.95;;;-1.10;99.90;;;;;;5095575;28;20070;-68
2022/03/07 01:10:33;;;;;;;11.65;5.43;;;-1.10;99.90;;;;;;5099485;28;20035;-67
2022/03/07 01:12:59;;;;;;;13.40;5.40;;;-1.10;99.90;;;;;;5082418;28;20039;-69
2022/03/07 01:15:25;;;;;;;13.15;5.85;;;-1.10;99.90;;;;;;5097976;28;20068;-67
2022/03/07 01:17:53;;;;;;;14.95;6.28;;;-1.10;99.90;;;;;;5078034;28;20040;-67
2022/03/07 01:20:19;;;;;;;12.07;5.82;;;-1.10;99.90;;;;;;5084593;28;20100;-68
2022/03/07 01:22:45;;;;;;;14.10;5.80;;;-1.20;99.90;;;;;;5095253;28;20334;-68
2022/03/07 01:25:11;;;;;;;8.65;5.00;;;-1.20;99.90;;;;;;5087357;28;20104;-68
2022/03/07 01:27:37;;;;;;;12.32;5.43;;;-1.20;99.90;;;;;;5071172;28;20071;-68
2022/03/07 01:30:04;;;;;;;12.95;5.43;;;-1.20;99.90;;;;;;5089760;28;20047;-69
2022/03/07 01:32:30;;;;;;;11.68;5.25;;;-1.20;99.90;;;;;;5095522;28;20448;-67
2022/03/07 01:34:56;;;;;;;10.20;5.05;;;-1.30;99.90;;;;;;5101787;28;20074;-67
2022/03/07 01:37:22;;;;;;;13.27;6.35;;;-1.30;99.90;;;;;;5100562;28;20048;-67
2022/03/07 01:39:48;;;;;;;10.40;5.30;;;-1.30;99.90;;;;;;5108370;28;20092;-68
2022/03/07 01:42:14;;;;;;;12.80;6.03;;;-1.30;99.90;;;;;;5085487;28;20052;-67
2022/03/07 01:44:40;;;;;;;12.50;6.05;;;-1.30;99.90;;;;;;5092156;28;20046;-67
2022/03/07 01:47:06;;;;;;;12.63;5.90;;;-1.40;99.90;;;;;;5101065;28;20158;-69
2022/03/07 01:49:32;;;;;;;14.02;6.50;;;-1.40;99.90;;;;;;5104289;28;20131;-68
2022/03/07 01:51:58;;;;;;;10.85;5.80;;;-1.40;99.90;;;;;;5077491;28;20048;-68
2022/03/07 01:54:24;;;;;;;14.82;6.43;;;-1.50;99.90;;;;;;5082177;28;20051;-67
2022/03/07 01:56:52;;;;;;;11.98;6.75;;;-1.50;99.90;;;;;;5081015;28;20036;-67
2022/03/07 01:59:29;;;;;;;11.65;5.63;;;-1.50;99.90;;;;;;5087231;28;20048;-69
2022/03/07 02:01:56;;;;;;;12.13;6.15;;;-1.50;99.90;;;;;;5096004;28;20051;-67
2022/03/07 02:04:22;;;;;;;12.00;5.60;;;-1.60;99.90;;;;;;5062677;28;20087;-69
2022/03/07 02:06:48;;;;;;;12.88;6.15;;;-1.00;99.90;;;;;;5099966;28;20036;-67
2022/03/07 02:09:15;;;;;;;19.05;6.30;;;-1.60;99.90;;;;;;5092436;28;20039;-70
2022/03/07 02:11:41;;;;;;;11.88;5.63;;;-1.60;99.90;;;;;;5067293;28;20047;-67
2022/03/07 02:14:14;;;;;;;12.18;5.60;;;-1.70;99.90;;;;;;5084772;28;20036;-66
2022/03/07 02:16:41;;;;;;;12.55;5.45;;;-1.70;99.90;;;;;;5090782;28;20036;-68
2022/03/07 02:19:08;;;;;;;13.73;5.90;;;-1.70;99.90;;;;;;5096917;28;20119;-67
2022/03/07 02:21:34;;;;;;;15.27;6.45;;;-1.70;99.90;;;;;;5075954;28;20035;-67
2022/03/07 02:24:00;;;;;;;11.82;5.28;;;-1.70;99.90;;;;;;5082895;28;20054;-67
2022/03/07 02:26:26;;;;;;;12.43;6.25;;;-1.80;99.90;;;;;;5106863;28;20119;-67
2022/03/07 02:28:52;;;;;;;13.95;5.88;;;-1.80;99.90;;;;;;5099025;28;20112;-68
2022/03/07 02:31:20;;;;;;;11.77;6.03;;;-1.80;99.90;;;;;;5076502;28;20646;-68
2022/03/07 02:33:46;;;;;;;13.40;5.22;;;-1.40;99.90;;;;;;5098588;28;20039;-67
2022/03/07 02:36:12;;;;;;;12.18;5.63;;;-1.80;99.90;;;;;;5091040;28;20403;-67
2022/03/07 02:38:38;;;;;;;14.73;5.68;;;-1.90;99.90;;;;;;5057827;28;20048;-68
2022/03/07 02:41:04;;;;;;;11.27;5.22;;;-1.90;99.90;;;;;;5103545;28;20126;-68
2022/03/07 02:43:30;;;;;;;12.40;5.93;;;-1.90;99.90;;;;;;5099262;28;20051;-68
2022/03/07 02:45:58;;;;;;;12.55;6.20;;;-1.90;99.90;;;;;;5084697;28;20063;-67
2022/03/07 02:48:27;;;;;;;15.52;6.13;;;-1.90;99.90;;;;;;5102041;28;20076;-68
2022/03/07 02:50:53;;;;;;;12.65;6.50;;;-2.00;99.90;;;;;;5097029;28;20047;-67
2022/03/07 02:53:19;;;;;;;15.27;7.10;;;-2.00;99.90;;;;;;5073963;28;20078;-70
2022/03/07 02:55:45;;;;;;;15.10;7.05;;;-2.00;99.90;;;;;;5096780;28;20084;-67
2022/03/07 02:58:11;;;;;;;14.05;7.03;;;-2.10;99.90;;;;;;5096185;28;20040;-67
2022/03/07 03:00:37;;;;;;;14.77;6.25;;;-2.10;99.90;;;;;;5092541;28;20039;-67
2022/03/07 03:03:03;;;;;;;15.27;7.15;;;-2.00;99.90;;;;;;5092602;28;20209;-67
2022/03/07 03:05:29;;;;;;;14.63;6.53;;;-2.10;99.90;;;;;;5075995;28;20044;-67
2022/03/07 03:07:55;;;;;;;14.73;6.90;;;-2.10;99.90;;;;;;5062287;28;20059;-67
2022/03/07 03:10:21;;;;;;;16.02;7.63;;;-2.10;99.90;;;;;;5098161;28;20047;-68
2022/03/07 03:12:48;;;;;;;16.63;7.45;;;-2.10;99.90;;;;;;5083488;28;20039;-67
2022/03/07 03:15:15;;;;;;;15.52;7.28;;;-1.60;99.90;;;;;;5059635;28;20123;-67
2022/03/07 03:17:42;;;;;;;17.95;7.68;;;-2.20;99.90;;;;;;5101007;28;20043;-67
2022/03/07 03:20:12;;;;;;;15.10;7.18;;;-2.20;99.90;;;;;;5080832;28;20050;-66
2022/03/07 03:22:43;;;;;;;12.23;6.82;;;-2.20;99.90;;;;;;5079400;28;20040;-66
2022/03/07 03:25:10;;;;;;;20.13;8.68;;;-2.20;99.90;;;;;;5105796;28;20040;-68
2022/03/07 03:27:37;;;;;;;15.20;6.85;;;-2.20;99.90;;;;;;5099508;28;20383;-67
2022/03/07 03:30:05;;;;;;;13.30;7.07;;;-2.30;99.90;;;;;;5088329;28;20130;-67
2022/03/07 03:32:31;;;;;;;13.25;6.65;;;-2.30;99.90;;;;;;5099762;28;20047;-67
2022/03/07 03:34:57;;;;;;;11.80;6.43;;;-2.30;99.90;;;;;;5096247;28;20048;-66
2022/03/07 03:37:26;;;;;;;15.80;6.57;;;-2.30;99.90;;;;;;5035776;28;20125;-66
2022/03/07 03:39:53;;;;;;;14.40;6.80;;;-2.30;99.90;;;;;;5094899;28;20055;-66
2022/03/07 03:42:19;;;;;;;13.07;6.70;;;-2.30;99.90;;;;;;5077206;28;20056;-67
2022/03/07 03:44:45;;;;;;;18.00;7.70;;;-2.30;99.90;;;;;;5077365;28;20043;-66
2022/03/07 03:47:11;;;;;;;15.50;7.35;;;-2.30;99.90;;;;;;5078670;28;20052;-66
2022/03/07 03:49:37;;;;;;;16.35;7.00;;;-2.40;99.90;;;;;;5084347;28;20131;-66
2022/03/07 03:52:03;;;;;;;15.32;7.20;;;-2.30;99.90;;;;;;5093063;28;20040;-66
2022/03/07 03:54:29;;;;;;;12.43;6.32;;;-2.40;99.90;;;;;;5091462;28;20112;-66
2022/03/07 03:56:55;;;;;;;16.13;6.18;;;-2.40;99.90;;;;;;5065254;28;20040;-66
2022/03/07 03:59:21;;;;;;;13.13;5.93;;;-2.40;99.90;;;;;;5109458;28;20054;-66
2022/03/07 04:01:47;;;;;;;15.40;6.72;;;-2.40;99.90;;;;;;5092614;28;20123;-66
2022/03/07 04:04:14;;;;;;;12.45;5.95;;;-2.40;99.90;;;;;;5095639;28;20498;-66
2022/03/07 04:06:41;;;;;;;10.68;5.88;;;-2.40;99.90;;;;;;5093357;28;20032;-66
2022/03/07 04:09:25;;;;;;;11.52;6.03;;;-2.40;99.90;;;;;;5077821;28;20044;-66
2022/03/07 04:11:54;;;;;;;10.50;5.32;;;-2.40;99.90;;;;;;5061634;28;20042;-65
2022/03/07 04:14:20;;;;;;;12.25;5.45;;;-2.40;99.90;;;;;;5073753;28;20684;-65
2022/03/07 04:16:46;;;;;;;9.30;5.45;;;-2.50;99.90;;;;;;5092441;28;20033;-66
2022/03/07 04:19:12;;;;;;;12.40;6.60;;;-2.50;99.90;;;;;;5084399;28;20058;-66
2022/03/07 04:21:40;;;;;;;14.05;6.50;;;-2.50;99.90;;;;;;5088366;28;20047;-65
2022/03/07 04:24:07;;;;;;;11.43;5.55;;;-2.50;99.90;;;;;;5080601;28;20048;-66
2022/03/07 04:26:33;;;;;;;9.82;5.47;;;-2.50;99.90;;;;;;5073797;28;20459;-65
2022/03/07 04:29:05;;;;;;;12.15;6.60;;;-2.50;99.90;;;;;;5089206;28;20040;-66
2022/03/07 04:31:32;;;;;;;11.40;5.30;;;-2.50;99.90;;;;;;5088672;28;20494;-66
2022/03/07 04:33:58;;;;;;;11.68;5.80;;;-2.50;99.90;;;;;;5076701;28;20044;-66
2022/03/07 04:36:24;;;;;;;10.82;5.65;;;-2.50;99.90;;;;;;5075076;28;20476;-66
2022/03/07 04:38:49;;;;;;;13.77;6.30;;;-2.50;99.90;;;;;;5092621;28;20040;-66
2022/03/07 04:41:15;;;;;;;14.00;6.68;;;-2.50;99.90;;;;;;5082626;28;20067;-66
2022/03/07 04:43:41;;;;;;;12.07;5.80;;;-2.50;99.90;;;;;;5080506;28;20044;-66
2022/03/07 04:46:08;;;;;;;13.07;5.90;;;-1.50;99.90;;;;;;5102474;28;20472;-65
2022/03/07 04:48:35;;;;;;;11.48;6.05;;;-2.60;99.90;;;;;;5098608;28;20040;-67
2022/03/07 04:51:02;;;;;;;13.23;6.13;;;-2.60;99.90;;;;;;5093835;28;20039;-67
2022/03/07 04:53:28;;;;;;;10.90;5.95;;;-2.60;99.90;;;;;;5097186;28;20071;-65
2022/03/07 04:55:54;;;;;;;15.25;5.85;;;-2.60;99.90;;;;;;5095745;28;20067;-67
2022/03/07 04:58:20;;;;;;;13.30;5.80;;;-2.60;99.90;;;;;;5058891;28;20123;-66
2022/03/07 05:00:46;;;;;;;9.15;5.60;;;-2.60;99.90;;;;;;5077862;28;20119;-66
2022/03/07 05:03:12;;;;;;;13.32;6.13;;;-2.40;99.90;;;;;;5076527;28;20135;-65
2022/03/07 05:05:38;;;;;;;11.15;6.22;;;-2.60;99.90;;;;;;5093630;28;20048;-65
2022/03/07 05:08:04;;;;;;;13.73;5.95;;;-2.70;99.90;;;;;;5096143;28;20040;-65
2022/03/07 05:10:30;;;;;;;8.43;4.80;;;-2.70;99.90;;;;;;5100614;28;20050;-65
2022/03/07 05:12:56;;;;;;;12.68;6.47;;;-2.70;99.90;;;;;;5084194;28;20044;-65
2022/03/07 05:15:22;;;;;;;10.90;5.60;;;-2.60;99.90;;;;;;5102511;28;20059;-66
2022/03/07 05:17:54;;;;;;;8.90;5.53;;;-2.70;99.90;;;;;;5095435;28;20463;-67
2022/03/07 05:20:21;;;;;;;12.35;7.30;;;-2.70;99.90;;;;;;5073112;28;20404;-66
2022/03/07 05:22:48;;;;;;;11.43;6.05;;;-2.70;99.90;;;;;;5091402;28;20040;-66
2022/03/07 05:25:15;;;;;;;11.32;6.63;;;-2.70;99.90;;;;;;5099284;28;20194;-66
2022/03/07 05:27:41;;;;;;;9.50;5.57;;;-2.70;99.90;;;;;;5081662;28;20056;-65
2022/03/07 05:30:09;;;;;;;10.27;5.65;;;-2.70;99.90;;;;;;5093420;28;20062;-65
2022/03/07 05:32:35;;;;;;;10.20;5.90;;;-2.80;99.90;;;;;;5075792;28;20040;-65
2022/03/07 05:35:01;;;;;;;11.18;6.20;;;-2.80;99.90;;;;;;5097530;28;20103;-65
2022/03/07 05:37:27;;;;;;;11.88;6.53;;;-2.70;99.90;;;;;;5098227;28;20068;-67
2022/03/07 05:39:53;;;;;;;12.32;6.82;;;-2.70;99.90;;;;;;5080011;28;20079;-66
2022/03/07 05:42:20;;;;;;;13.38;6.47;;;-2.80;99.90;;;;;;5095208;28;20078;-66
2022/03/07 05:44:46;;;;;;;10.82;6.22;;;-2.80;99.90;;;;;;5079741;28;20056;-65
2022/03/07 05:47:12;;;;;;;13.02;6.97;;;-2.80;99.90;;;;;;5092966;28;20165;-66
2022/03/07 05:49:38;;;;;;;14.07;7.82;;;-2.80;99.90;;;;;;5096432;28;20401;-65
2022/03/07 05:52:04;;;;;;;13.15;6.45;;;-2.80;99.90;;;;;;5091781;28;20422;-65
2022/03/07 05:54:30;;;;;;;15.77;7.20;;;-2.80;99.90;;;;;;5104446;28;20098;-67
2022/03/07 05:56:56;;;;;;;18.45;7.63;;;-2.80;99.90;;;;;;5093780;28;20099;-67
2022/03/07 05:59:22;;;;;;;14.00;8.05;;;-2.80;99.90;;;;;;5104194;28;20048;-66
2022/03/07 06:01:48;;;;;;;17.95;7.45;;;-2.80;99.90;;;;;;5076265;28;20845;-66
2022/03/07 06:04:14;;;;;;;16.95;8.13;;;-2.80;99.90;;;;;;5098838;28;20040;-65
2022/03/07 06:06:39;;;;;;;13.82;7.30;;;-2.80;99.90;;;;;;5105593;28;20149;-66
2022/03/07 06:09:06;;;;;;;14.98;7.63;;;-2.80;99.90;;;;;;5094623;28;20047;-66
2022/03/07 06:11:33;;;;;;;14.05;7.18;;;-2.70;99.90;;;;;;5080777;28;20116;-67
2022/03/07 06:13:59;;;;;;;13.93;6.80;;;-2.80;99.90;;;;;;5078159;28;20097;-65
2022/03/07 06:16:25;;;;;;;12.88;7.05;;;-2.80;99.90;;;;;;5085553;28;20380;-66
2022/03/07 06:18:50;;;;;;;13.82;7.03;;;-2.70;99.90;;;;;;5101760;28;20035;-65
2022/03/07 06:21:16;;;;;;;11.65;6.82;;;-2.80;99.90;;;;;;5076265;28;20055;-66
2022/03/07 06:23:43;;;;;;;14.80;7.28;;;-2.80;99.90;;;;;;5093392;28;20073;-65
2022/03/07 06:26:09;;;;;;;12.40;6.50;;;-2.80;99.90;;;;;;5102271;28;20126;-67
2022/03/07 06:28:35;;;;;;;13.20;7.13;;;-2.70;99.90;;;;;;5102180;28;20075;-66
2022/03/07 06:31:01;;;;;;;9.88;6.47;;;-2.80;99.90;;;;;;5103459;28;20036;-65
2022/03/07 06:33:27;;;;;;;11.57;6.78;;;-2.80;99.90;;;;;;5075616;28;20048;-66
2022/03/07 06:35:53;;;;;;;13.35;6.47;;;-2.70;99.90;;;;;;5075519;28;20048;-66
2022/03/07 06:38:19;;;;;;;11.02;6.53;;;-2.70;99.90;;;;;;5072809;28;20044;-65
2022/03/07 06:40:46;;;;;;;14.57;6.75;;;-2.70;99.90;;;;;;5082783;28;20185;-65
2022/03/07 06:43:12;;;;;;;10.25;6.07;;;-2.60;99.90;;;;;;5092141;28;20154;-66
2022/03/07 06:45:39;;;;;;;10.13;5.78;;;-2.60;99.90;;;;;;5093484;28;20048;-66
2022/03/07 06:48:05;;;;;;;11.07;6.88;;;-2.50;99.90;;;;;;5090590;28;20075;-65
2022/03/07 06:50:32;;;;;;;10.93;6.47;;;-2.40;99.90;;;;;;5073893;28;20048;-65
2022/03/07 06:52:58;;;;;;;13.07;6.63;;;-2.40;99.90;;;;;;5097362;28;20470;-68
2022/03/07 06:55:24;;;;;;;11.70;6.72;;;-2.30;99.90;;;;;;5092285;28;20494;-66
2022/03/07 06:57:50;;;;;;;13.75;6.78;;;-2.20;99.90;;;;;;5097011;28;20036;-65
2022/03/07 07:00:17;;;;;;;14.65;7.68;;;-2.10;99.90;;;;;;5091326;28;20035;-65
2022/03/07 07:02:45;;;;;;;14.73;7.20;;;-2.00;99.90;;;;;;5090401;28;20086;-65
2022/03/07 07:05:13;;;;;;;13.43;7.63;;;-1.90;99.90;;;;;;5074400;28;20083;-66
2022/03/07 07:07:39;;;;;;;15.90;8.38;;;-1.80;99.90;;;;;;5091506;28;20036;-68
2022/03/07 07:10:06;;;;;;;16.75;8.40;;;-1.70;99.90;;;;;;5096003;28;20081;-66
2022/03/07 07:12:34;;;;;;;14.70;8.00;;;-1.60;99.90;;;;;;5079950;28;20061;-69
2022/03/07 07:14:59;;;;;;;15.38;8.98;;;-1.50;99.90;;;;;;5105954;28;20044;-66
2022/03/07 07:17:25;;;;;;;16.83;8.82;;;-1.40;99.90;;;;;;5094686;28;20387;-66
2022/03/07 07:19:51;;;;;;;16.17;9.27;;;-1.30;99.90;;;;;;5098689;28;20040;-67
2022/03/07 07:22:17;;;;;;;16.45;8.98;;;-1.10;99.90;;;;;;5057316;28;20051;-67
2022/03/07 07:24:43;;;;;;;17.15;9.52;;;-0.60;99.90;;;;;;5096447;28;20047;-67
2022/03/07 07:27:09;;;;;;;20.83;9.70;;;-0.80;99.90;;;;;;5057810;28;20046;-68
2022/03/07 07:29:35;;;;;;;20.63;10.93;;;-0.70;99.90;;;;;;5076613;28;20035;-68
2022/03/07 07:32:04;;;;;;;20.02;10.52;;;-0.50;99.90;;;;;;5067128;28;20046;-70
2022/03/07 07:34:30;;;;;;;20.42;11.48;;;-0.40;99.90;;;;;;5082188;28;20043;-68
2022/03/07 07:36:56;;;;;;;24.23;11.63;;;-0.20;99.90;;;;;;5085908;28;20391;-68
2022/03/07 07:39:22;;;;;;;23.08;12.60;;;-0.10;99.90;;;;;;5079108;28;20418;-70
2022/03/07 07:41:48;;;;;;;23.00;12.93;;;0.10;99.90;;;;;;5088275;28;20146;-69
2022/03/07 07:44:16;;;;;;;23.02;11.95;;;0.20;99.90;;;;;;5080709;28;20127;-68
2022/03/07 07:46:42;;;;;;;24.88;13.00;;;0.50;99.90;;;;;;5073006;28;20059;-69
2022/03/07 07:49:08;;;;;;;29.38;14.05;;;0.70;99.90;;;;;;5091533;28;20044;-68
2022/03/07 07:51:34;;;;;;;31.23;14.27;;;0.90;99.90;;;;;;5073907;28;20043;-69
2022/03/07 07:54:01;;;;;;;26.77;13.15;;;1.10;99.90;;;;;;5080554;28;20047;-68
2022/03/07 07:56:27;;;;;;;24.55;12.15;;;1.40;99.90;;;;;;5079667;28;20044;-71
2022/03/07 07:58:53;;;;;;;24.10;12.07;;;1.60;99.90;;;;;;5090024;28;20480;-70
2022/03/07 08:01:19;;;;;;;21.83;12.65;;;1.80;99.90;;;;;;5090312;28;20044;-69
2022/03/07 08:03:45;;;;;;;32.15;18.13;;;2.00;99.90;;;;;;5076115;28;20089;-69
2022/03/07 08:06:11;;;;;;;20.85;11.48;;;2.20;99.90;;;;;;5090563;28;20552;-70
2022/03/07 08:08:37;;;;;;;15.93;9.02;;;2.40;99.90;;;;;;5076745;28;20185;-70
2022/03/07 08:11:03;;;;;;;22.35;14.85;;;2.60;99.90;;;;;;5090940;28;20511;-70
2022/03/07 08:13:29;;;;;;;16.25;8.77;;;2.80;99.90;;;;;;5079649;28;20484;-70
2022/03/07 08:15:55;;;;;;;18.27;8.63;;;3.00;99.90;;;;;;5109982;28;20046;-72
2022/03/07 08:18:21;;;;;;;12.40;7.43;;;3.10;99.90;;;;;;5081338;28;20131;-72
2022/03/07 08:20:47;;;;;;;14.43;6.82;;;3.30;99.90;;;;;;5097338;28;20048;-72
2022/03/07 08:23:13;;;;;;;13.45;7.20;;;3.50;99.90;;;;;;5069153;28;20049;-72
2022/03/07 08:25:39;;;;;;;10.95;6.10;;;3.60;99.90;;;;;;5093627;28;20388;-71
2022/03/07 08:28:05;;;;;;;10.65;7.18;;;3.70;99.90;;;;;;5093115;28;20032;-70
2022/03/07 08:30:33;;;;;;;12.98;7.90;;;3.80;99.90;;;;;;5077429;28;20444;-70
2022/03/07 08:32:58;;;;;;;10.80;4.95;;;4.00;99.90;;;;;;5077047;28;20036;-70
2022/03/07 08:35:24;;;;;;;9.30;5.88;;;4.40;99.90;;;;;;5077030;28;20051;-70
2022/03/07 08:37:52;;;;;;;9.77;5.00;;;4.20;99.90;;;;;;5059766;28;20474;-70
2022/03/07 08:40:19;;;;;;;8.40;5.20;;;4.00;99.90;;;;;;5094021;28;20478;-71
2022/03/07 08:42:46;;;;;;;11.13;5.53;;;4.50;99.90;;;;;;5068720;28;20043;-70
2022/03/07 08:45:12;;;;;;;9.73;5.70;;;4.60;99.90;;;;;;5087413;28;20055;-70
2022/03/07 08:47:40;;;;;;;7.85;5.55;;;4.70;99.90;;;;;;5093507;28;20043;-69
2022/03/07 08:50:08;;;;;;;7.63;4.95;;;4.90;99.90;;;;;;5093079;28;20048;-69
2022/03/07 08:52:35;;;;;;;9.52;4.85;;;5.00;99.90;;;;;;5093224;28;20046;-69
2022/03/07 08:55:01;;;;;;;5.70;3.75;;;5.10;99.90;;;;;;5080441;28;20135;-70
2022/03/07 08:57:27;;;;;;;6.65;3.85;;;5.30;99.90;;;;;;5102788;28;20062;-70
2022/03/07 08:59:53;;;;;;;6.65;4.20;;;5.40;99.90;;;;;;5093720;28;20479;-69
2022/03/07 09:02:19;;;;;;;8.18;3.45;;;5.50;99.90;;;;;;5092220;28;20089;-69
2022/03/07 09:04:45;;;;;;;7.40;3.40;;;5.50;99.90;;;;;;5089474;28;20055;-69
2022/03/07 09:07:11;;;;;;;7.25;3.58;;;5.60;99.90;;;;;;5076662;28;20067;-69
2022/03/07 09:09:37;;;;;;;6.78;3.13;;;5.70;99.90;;;;;;5076858;28;20048;-71
2022/03/07 09:12:04;;;;;;;8.15;3.70;;;5.80;99.90;;;;;;5093912;28;20052;-69
2022/03/07 09:14:31;;;;;;;6.30;4.28;;;5.90;99.90;;;;;;5071283;28;20052;-73
2022/03/07 09:16:57;;;;;;;4.07;3.10;;;6.00;99.90;;;;;;5075933;28;20442;-74
2022/03/07 09:19:23;;;;;;;10.13;3.28;;;6.10;99.90;;;;;;5080738;28;20494;-73
2022/03/07 09:21:49;;;;;;;4.07;2.92;;;6.30;99.90;;;;;;5076563;28;20450;-73
2022/03/07 09:24:15;;;;;;;7.18;2.70;;;6.50;99.90;;;;;;5092216;28;20119;-75
2022/03/07 09:26:41;;;;;;;7.80;3.45;;;6.50;99.90;;;;;;5055284;28;20109;-74
2022/03/07 09:29:07;;;;;;;7.57;3.42;;;6.70;99.90;;;;;;5072700;28;20082;-71
2022/03/07 09:31:33;;;;;;;8.10;2.97;;;6.70;99.90;;;;;;5094111;28;20076;-76
2022/03/07 09:33:59;;;;;;;8.38;3.20;;;6.80;99.90;;;;;;5100303;28;20101;-69
2022/03/07 09:36:25;;;;;;;7.30;3.15;;;7.00;99.90;;;;;;5086430;28;20040;-71
2022/03/07 09:38:52;;;;;;;6.57;3.20;;;7.00;99.90;;;;;;5098341;28;20039;-69
2022/03/07 09:41:18;;;;;;;7.25;3.00;;;7.10;99.90;;;;;;5093140;28;20105;-71
2022/03/07 09:43:46;;;;;;;18.70;4.40;;;7.20;99.90;;;;;;5093502;28;20070;-71
2022/03/07 09:46:14;;;;;;;6.07;2.75;;;7.40;99.90;;;;;;5092613;28;20071;-74
2022/03/07 09:48:41;;;;;;;7.32;2.90;;;7.50;99.90;;;;;;5078232;28;20047;-73
2022/03/07 09:51:07;;;;;;;5.85;2.72;;;7.50;99.90;;;;;;5096694;28;20041;-73
2022/03/07 09:53:34;;;;;;;8.57;3.10;;;7.50;99.90;;;;;;5095089;28;20048;-74
2022/03/07 09:56:00;;;;;;;5.10;2.50;;;8.20;99.90;;;;;;5064928;28;20472;-73
2022/03/07 09:58:26;;;;;;;6.03;2.85;;;7.70;99.90;;;;;;5075626;28;20131;-73
2022/03/07 10:00:52;;;;;;;5.82;3.55;;;7.90;99.90;;;;;;5075673;28;20167;-73
2022/03/07 10:03:18;;;;;;;7.88;3.00;;;8.00;99.90;;;;;;5058962;28;20392;-73
2022/03/07 10:05:46;;;;;;;5.40;2.90;;;8.10;99.90;;;;;;5058387;28;20036;-74
2022/03/07 10:08:30;;;;;;;7.40;3.20;;;8.00;99.90;;;;;;5091759;28;20056;-74
2022/03/07 10:10:57;;;;;;;7.43;3.10;;;8.20;99.90;;;;;;5058550;28;20071;-73
2022/03/07 10:13:24;;;;;;;6.85;3.00;;;8.20;99.90;;;;;;5075665;28;20072;-74
2022/03/07 10:15:57;;;;;;;8.55;3.40;;;8.00;99.90;;;;;;5091323;28;20106;-74
2022/03/07 10:18:23;;;;;;;6.50;2.85;;;7.80;99.90;;;;;;5075472;28;20055;-73
2022/03/07 10:20:51;;;;;;;6.72;3.30;;;7.00;99.90;;;;;;5075099;28;20044;-71
2022/03/07 10:23:18;;;;;;;7.90;2.80;;;7.90;99.90;;;;;;5075704;28;20083;-72
2022/03/07 10:25:44;;;;;;;6.90;2.92;;;7.90;99.90;;;;;;5058279;28;20069;-72
2022/03/07 10:28:10;;;;;;;6.97;2.63;;;8.20;99.90;;;;;;5074779;28;20480;-71
2022/03/07 10:30:37;;;;;;;5.85;2.95;;;8.20;99.90;;;;;;5074594;28;20040;-74
2022/03/07 10:33:09;;;;;;;9.95;3.30;;;8.40;99.90;;;;;;5055619;28;20059;-73
2022/03/07 10:35:43;;;;;;;8.57;3.00;;;8.60;99.90;;;;;;5087332;28;20062;-70
2022/03/07 10:38:11;;;;;;;5.40;2.70;;;8.90;99.90;;;;;;5091354;28;20491;-73
2022/03/07 10:40:40;;;;;;;5.22;2.92;;;9.20;99.90;;;;;;5091650;28;20044;-71
2022/03/07 10:43:07;;;;;;;7.95;3.15;;;9.40;99.90;;;;;;5072920;28;20388;-71
2022/03/07 10:45:44;;;;;;;4.97;2.42;;;9.50;99.90;;;;;;5074355;28;20048;-70
2022/03/07 10:48:11;;;;;;;6.13;2.67;;;9.70;99.90;;;;;;5074286;28;20123;-70
2022/03/07 10:50:37;;;;;;;6.88;2.47;;;9.80;99.90;;;;;;5091750;28;20122;-70
2022/03/07 10:53:06;;;;;;;3.53;2.50;;;10.00;99.90;;;;;;5074234;28;20040;-70
2022/03/07 10:55:33;;;;;;;3.38;2.50;;;10.20;99.90;;;;;;5090882;28;20111;-70
2022/03/07 10:58:14;;;;;;;4.30;2.30;;;10.40;99.90;;;;;;5074025;28;20483;-72
2022/03/07 11:01:01;;;;;;;5.95;2.45;;;10.50;99.90;;;;;;5072856;28;20129;-70
2022/03/07 11:03:31;;;;;;;5.53;2.30;;;10.60;99.90;;;;;;5074305;28;20393;-71
2022/03/07 11:05:59;;;;;;;4.93;2.90;;;10.80;99.90;;;;;;5067753;28;20095;-72
2022/03/07 11:08:25;;;;;;;3.80;3.00;;;10.70;99.90;;;;;;5073376;28;20056;-70
2022/03/07 11:10:54;;;;;;;6.38;2.95;;;10.80;99.90;;;;;;5096323;28;20039;-69
2022/03/07 11:13:29;;;;;;;5.85;2.75;;;10.90;99.90;;;;;;5091534;28;20039;-71
2022/03/07 11:15:57;;;;;;;3.80;3.20;;;11.00;99.90;;;;;;5092645;28;20044;-71
2022/03/07 11:18:24;;;;;;;5.45;3.38;;;11.20;99.90;;;;;;5090318;28;20115;-71
2022/03/07 11:20:57;;;;;;;5.30;2.80;;;11.20;99.90;;;;;;5056812;28;20037;-74
2022/03/07 11:23:23;;;;;;;4.22;2.72;;;11.20;99.90;;;;;;5080140;28;20055;-71
2022/03/07 11:25:51;;;;;;;5.20;2.40;;;11.40;99.90;;;;;;5091811;28;20494;-73
2022/03/07 11:28:17;;;;;;;5.20;2.60;;;11.40;99.90;;;;;;5073854;28;20044;-72
2022/03/07 11:30:44;;;;;;;4.35;2.55;;;11.40;99.90;;;;;;5091019;28;20472;-74
2022/03/07 11:33:18;;;;;;;4.18;2.00;;;11.20;99.90;;;;;;5074176;28;20048;-72
2022/03/07 11:35:50;;;;;;;4.68;2.50;;;11.20;99.90;;;;;;5055681;28;20075;-71
2022/03/07 11:38:20;;;;;;;4.13;2.45;;;11.40;99.90;;;;;;5088393;28;20039;-73
2022/03/07 11:41:06;;;;;;;3.45;2.20;;;11.50;99.90;;;;;;5073770;28;20047;-68
2022/03/07 11:44:00;;;;;;;3.40;2.00;;;11.40;90.90;;;;;;5074042;28;20104;-69
2022/03/07 11:46:34;;;;;;;4.32;2.28;;;11.40;93.00;;;;;;5088636;28;20508;-68
2022/03/07 11:49:02;;;;;;;4.95;2.50;;;11.50;96.90;;;;;;5089671;28;20033;-68
2022/03/07 11:51:30;;;;;;;4.03;2.20;;;11.60;99.90;;;;;;5055746;28;20040;-69
2022/03/07 11:53:58;;;;;;;4.00;2.10;;;11.70;99.90;;;;;;5078353;28;20379;-68
2022/03/07 11:56:33;;;;;;;2.65;1.80;;;11.90;99.90;;;;;;5096191;28;20066;-68
2022/03/07 11:59:00;;;;;;;4.22;2.22;;;12.00;99.90;;;;;;5089993;28;20040;-68
2022/03/07 12:01:28;;;;;;;4.93;2.20;;;12.40;99.90;;;;;;5090102;28;20036;-69
2022/03/07 12:03:54;;;;;;;4.28;2.30;;;12.50;99.90;;;;;;5090696;28;20036;-69
2022/03/07 12:06:22;;;;;;;3.22;2.08;;;12.50;99.90;;;;;;5073405;28;20046;-69
2022/03/07 12:08:54;;;;;;;4.28;1.73;;;12.90;95.30;;;;;;5056040;28;20076;-69
2022/03/07 12:11:34;;;;;;;1.88;1.70;;;12.70;99.90;;;;;;5073841;28;20040;-68
2022/03/07 12:14:06;;;;;;;3.78;2.20;;;12.60;92.50;;;;;;5090627;28;20480;-69
2022/03/07 12:16:36;;;;;;;2.00;1.80;;;12.80;99.90;;;;;;5073590;28;20068;-70
2022/03/07 12:19:09;;;;;;;4.85;2.17;;;12.90;89.10;;;;;;5073419;28;20491;-70
2022/03/07 12:21:41;;;;;;;2.03;1.80;;;12.90;99.90;;;;;;5073581;28;20463;-68
2022/03/07 12:24:08;;;;;;;3.25;1.85;;;13.60;99.90;;;;;;5090349;28;20028;-69
2022/03/07 12:26:51;;;;;;;3.95;2.10;;;13.90;99.90;;;;;;5089112;28;20036;-68
2022/03/07 12:29:18;;;;;;;3.65;2.08;;;13.80;82.00;;;;;;5073327;28;20042;-69
2022/03/07 12:31:59;;;;;;;3.75;1.90;;;14.10;94.10;;;;;;5053579;28;20073;-70
2022/03/07 12:34:33;;;;;;;3.80;1.67;;;14.20;82.60;;;;;;5060187;28;20391;-70
2022/03/07 12:37:20;;;;;;;2.45;1.48;;;14.90;85.10;;;;;;5088203;28;20591;-70
2022/03/07 12:39:57;;;;;;;3.00;1.90;;;15.10;80.30;;;;;;5090015;28;20537;-70
2022/03/07 12:42:26;;;;;;;2.20;2.00;;;15.10;75.10;;;;;;5089543;28;20511;-69
2022/03/07 12:44:52;;;;;;;3.20;1.90;;;14.70;72.60;;;;;;5073437;28;20063;-71